sensor_id;sensor_type;location;lat;lon;timestamp;temperature;humidity
15394;DHT22;7795;47.986;11.868;2023-08-12T00:01:41;20.00;71.30
15394;DHT22;7795;47.986;11.868;2023-08-12T00:04:06;20.00;71.40
15394;DHT22;7795;47.986;11.868;2023-08-12T00:06:34;19.90;71.30
15394;DHT22;7795;47.986;11.868;2023-08-12T00:08:59;19.90;71.40
15394;DHT22;7795;47.986;11.868;2023-08-12T00:11:25;19.90;71.30
15394;DHT22;7795;47.986;11.868;2023-08-12T00:13:51;19.80;71.30
15394;DHT22;7795;47.986;11.868;2023-08-12T00:16:16;19.80;71.40
15394;DHT22;7795;47.986;11.868;2023-08-12T00:18:42;19.70;71.60
15394;DHT22;7795;47.986;11.868;2023-08-12T00:21:09;19.70;71.70
15394;DHT22;7795;47.986;11.868;2023-08-12T00:23:37;19.60;71.90
15394;DHT22;7795;47.986;11.868;2023-08-12T00:26:03;19.70;72.20
15394;DHT22;7795;47.986;11.868;2023-08-12T00:28:29;19.60;72.00
15394;DHT22;7795;47.986;11.868;2023-08-12T00:30:55;19.60;72.20
15394;DHT22;7795;47.986;11.868;2023-08-12T00:33:21;19.60;73.10
15394;DHT22;7795;47.986;11.868;2023-08-12T00:35:46;19.50;72.30
15394;DHT22;7795;47.986;11.868;2023-08-12T00:38:12;19.50;72.40
15394;DHT22;7795;47.986;11.868;2023-08-12T00:40:39;19.50;72.40
15394;DHT22;7795;47.986;11.868;2023-08-12T00:43:05;19.50;72.50
15394;DHT22;7795;47.986;11.868;2023-08-12T00:45:31;19.40;72.30
15394;DHT22;7795;47.986;11.868;2023-08-12T00:47:57;19.40;72.50
15394;DHT22;7795;47.986;11.868;2023-08-12T00:50:23;19.40;72.60
15394;DHT22;7795;47.986;11.868;2023-08-12T00:52:49;19.30;72.70
15394;DHT22;7795;47.986;11.868;2023-08-12T00:55:17;19.30;72.70
15394;DHT22;7795;47.986;11.868;2023-08-12T00:57:44;19.30;72.90
15394;DHT22;7795;47.986;11.868;2023-08-12T01:00:11;19.30;73.10
15394;DHT22;7795;47.986;11.868;2023-08-12T01:02:37;19.30;73.00
15394;DHT22;7795;47.986;11.868;2023-08-12T01:05:04;19.20;72.90
15394;DHT22;7795;47.986;11.868;2023-08-12T01:07:30;19.20;73.00
15394;DHT22;7795;47.986;11.868;2023-08-12T01:09:55;19.20;73.00
15394;DHT22;7795;47.986;11.868;2023-08-12T01:12:26;19.20;73.10
15394;DHT22;7795;47.986;11.868;2023-08-12T01:14:58;19.20;73.30
15394;DHT22;7795;47.986;11.868;2023-08-12T01:17:28;19.10;73.30
15394;DHT22;7795;47.986;11.868;2023-08-12T01:19:56;19.10;73.20
15394;DHT22;7795;47.986;11.868;2023-08-12T01:22:23;19.10;73.20
15394;DHT22;7795;47.986;11.868;2023-08-12T01:24:52;19.10;73.20
15394;DHT22;7795;47.986;11.868;2023-08-12T01:27:18;19.10;73.20
15394;DHT22;7795;47.986;11.868;2023-08-12T01:29:48;19.00;73.10
15394;DHT22;7795;47.986;11.868;2023-08-12T01:32:22;19.00;73.30
15394;DHT22;7795;47.986;11.868;2023-08-12T01:34:54;19.00;73.40
15394;DHT22;7795;47.986;11.868;2023-08-12T01:37:25;18.90;73.20
15394;DHT22;7795;47.986;11.868;2023-08-12T01:39:54;18.80;73.10
15394;DHT22;7795;47.986;11.868;2023-08-12T01:42:23;18.80;73.10
15394;DHT22;7795;47.986;11.868;2023-08-12T01:44:50;18.80;73.00
15394;DHT22;7795;47.986;11.868;2023-08-12T01:47:15;18.80;73.10
15394;DHT22;7795;47.986;11.868;2023-08-12T01:49:41;18.70;73.10
15394;DHT22;7795;47.986;11.868;2023-08-12T01:52:07;18.70;73.20
15394;DHT22;7795;47.986;11.868;2023-08-12T01:54:33;18.70;73.30
15394;DHT22;7795;47.986;11.868;2023-08-12T01:57:02;18.60;73.30
15394;DHT22;7795;47.986;11.868;2023-08-12T01:59:28;18.60;73.50
15394;DHT22;7795;47.986;11.868;2023-08-12T02:01:54;18.60;73.50
15394;DHT22;7795;47.986;11.868;2023-08-12T02:04:19;18.60;73.70
15394;DHT22;7795;47.986;11.868;2023-08-12T02:06:45;18.60;73.70
15394;DHT22;7795;47.986;11.868;2023-08-12T02:09:11;18.50;73.80
15394;DHT22;7795;47.986;11.868;2023-08-12T02:11:36;18.50;73.80
15394;DHT22;7795;47.986;11.868;2023-08-12T02:14:04;18.50;73.90
15394;DHT22;7795;47.986;11.868;2023-08-12T02:16:30;18.50;74.10
15394;DHT22;7795;47.986;11.868;2023-08-12T02:18:55;18.50;74.10
15394;DHT22;7795;47.986;11.868;2023-08-12T02:21:21;18.50;74.20
15394;DHT22;7795;47.986;11.868;2023-08-12T02:23:47;18.40;74.20
15394;DHT22;7795;47.986;11.868;2023-08-12T02:26:13;18.50;74.30
15394;DHT22;7795;47.986;11.868;2023-08-12T02:28:39;18.40;75.00
15394;DHT22;7795;47.986;11.868;2023-08-12T02:31:06;18.40;75.00
15394;DHT22;7795;47.986;11.868;2023-08-12T02:33:31;18.40;74.30
15394;DHT22;7795;47.986;11.868;2023-08-12T02:35:57;18.30;74.10
15394;DHT22;7795;47.986;11.868;2023-08-12T02:38:23;18.30;74.10
15394;DHT22;7795;47.986;11.868;2023-08-12T02:40:49;18.30;74.10
15394;DHT22;7795;47.986;11.868;2023-08-12T02:43:15;18.30;74.10
15394;DHT22;7795;47.986;11.868;2023-08-12T02:45:41;18.20;74.10
15394;DHT22;7795;47.986;11.868;2023-08-12T02:48:09;18.20;74.20
15394;DHT22;7795;47.986;11.868;2023-08-12T02:50:34;18.20;75.10
15394;DHT22;7795;47.986;11.868;2023-08-12T02:53:00;18.10;74.30
15394;DHT22;7795;47.986;11.868;2023-08-12T02:55:26;18.10;74.30
15394;DHT22;7795;47.986;11.868;2023-08-12T02:57:51;18.10;74.40
15394;DHT22;7795;47.986;11.868;2023-08-12T03:00:17;18.10;74.30
15394;DHT22;7795;47.986;11.868;2023-08-12T03:02:43;18.00;74.30
15394;DHT22;7795;47.986;11.868;2023-08-12T03:05:10;18.00;74.40
15394;DHT22;7795;47.986;11.868;2023-08-12T03:07:36;18.00;74.60
15394;DHT22;7795;47.986;11.868;2023-08-12T03:10:02;18.00;74.60
15394;DHT22;7795;47.986;11.868;2023-08-12T03:12:28;18.00;74.80
15394;DHT22;7795;47.986;11.868;2023-08-12T03:14:54;17.90;74.80
15394;DHT22;7795;47.986;11.868;2023-08-12T03:17:19;17.90;74.90
15394;DHT22;7795;47.986;11.868;2023-08-12T03:19:45;17.90;75.00
15394;DHT22;7795;47.986;11.868;2023-08-12T03:22:12;17.90;75.00
15394;DHT22;7795;47.986;11.868;2023-08-12T03:24:38;17.90;75.20
15394;DHT22;7795;47.986;11.868;2023-08-12T03:27:04;17.90;75.10
15394;DHT22;7795;47.986;11.868;2023-08-12T03:29:29;17.90;75.10
15394;DHT22;7795;47.986;11.868;2023-08-12T03:31:55;17.80;75.10
15394;DHT22;7795;47.986;11.868;2023-08-12T03:34:21;17.80;75.10
15394;DHT22;7795;47.986;11.868;2023-08-12T03:36:47;17.80;75.10
15394;DHT22;7795;47.986;11.868;2023-08-12T03:39:15;17.80;75.10
15394;DHT22;7795;47.986;11.868;2023-08-12T03:41:41;17.80;75.20
15394;DHT22;7795;47.986;11.868;2023-08-12T03:44:07;17.80;75.30
15394;DHT22;7795;47.986;11.868;2023-08-12T03:46:33;17.70;75.20
15394;DHT22;7795;47.986;11.868;2023-08-12T03:48:58;17.70;75.10
15394;DHT22;7795;47.986;11.868;2023-08-12T03:51:24;17.70;75.10
15394;DHT22;7795;47.986;11.868;2023-08-12T03:53:50;17.70;75.10
15394;DHT22;7795;47.986;11.868;2023-08-12T03:56:17;17.70;75.10
15394;DHT22;7795;47.986;11.868;2023-08-12T03:58:43;17.60;75.10
15394;DHT22;7795;47.986;11.868;2023-08-12T04:01:08;17.60;75.10
15394;DHT22;7795;47.986;11.868;2023-08-12T04:03:34;17.60;75.20
15394;DHT22;7795;47.986;11.868;2023-08-12T04:06:00;17.50;75.30
15394;DHT22;7795;47.986;11.868;2023-08-12T04:08:25;17.50;75.30
15394;DHT22;7795;47.986;11.868;2023-08-12T04:10:51;17.50;75.30
15394;DHT22;7795;47.986;11.868;2023-08-12T04:13:19;17.50;75.30
15394;DHT22;7795;47.986;11.868;2023-08-12T04:15:48;17.40;75.20
15394;DHT22;7795;47.986;11.868;2023-08-12T04:18:14;17.40;75.20
15394;DHT22;7795;47.986;11.868;2023-08-12T04:20:40;17.40;75.20
15394;DHT22;7795;47.986;11.868;2023-08-12T04:23:06;17.40;75.20
15394;DHT22;7795;47.986;11.868;2023-08-12T04:25:32;17.30;75.30
15394;DHT22;7795;47.986;11.868;2023-08-12T04:27:58;17.30;75.50
15394;DHT22;7795;47.986;11.868;2023-08-12T04:30:25;17.30;75.70
15394;DHT22;7795;47.986;11.868;2023-08-12T04:32:52;17.30;75.90
15394;DHT22;7795;47.986;11.868;2023-08-12T04:35:17;17.20;75.90
15394;DHT22;7795;47.986;11.868;2023-08-12T04:37:43;17.20;76.10
15394;DHT22;7795;47.986;11.868;2023-08-12T04:40:09;17.20;76.10
15394;DHT22;7795;47.986;11.868;2023-08-12T04:42:36;17.20;76.30
15394;DHT22;7795;47.986;11.868;2023-08-12T04:45:03;17.20;76.40
15394;DHT22;7795;47.986;11.868;2023-08-12T04:47:30;17.20;76.50
15394;DHT22;7795;47.986;11.868;2023-08-12T04:49:56;17.20;76.60
15394;DHT22;7795;47.986;11.868;2023-08-12T04:52:22;17.20;76.60
15394;DHT22;7795;47.986;11.868;2023-08-12T04:54:48;17.20;76.60
15394;DHT22;7795;47.986;11.868;2023-08-12T04:57:13;17.20;76.80
15394;DHT22;7795;47.986;11.868;2023-08-12T04:59:39;17.30;77.10
15394;DHT22;7795;47.986;11.868;2023-08-12T05:02:05;17.30;77.20
15394;DHT22;7795;47.986;11.868;2023-08-12T05:04:32;17.40;77.40
15394;DHT22;7795;47.986;11.868;2023-08-12T05:06:58;17.40;77.50
15394;DHT22;7795;47.986;11.868;2023-08-12T05:09:23;17.50;77.70
15394;DHT22;7795;47.986;11.868;2023-08-12T05:11:49;17.50;77.70
15394;DHT22;7795;47.986;11.868;2023-08-12T05:14:15;17.60;77.90
15394;DHT22;7795;47.986;11.868;2023-08-12T05:16:41;17.70;77.90
15394;DHT22;7795;47.986;11.868;2023-08-12T05:19:06;17.80;77.90
15394;DHT22;7795;47.986;11.868;2023-08-12T05:21:34;17.90;77.70
15394;DHT22;7795;47.986;11.868;2023-08-12T05:23:59;18.00;77.60
15394;DHT22;7795;47.986;11.868;2023-08-12T05:26:25;18.10;77.50
15394;DHT22;7795;47.986;11.868;2023-08-12T05:28:51;18.30;77.60
15394;DHT22;7795;47.986;11.868;2023-08-12T05:31:17;18.40;77.50
15394;DHT22;7795;47.986;11.868;2023-08-12T05:33:42;18.50;77.40
15394;DHT22;7795;47.986;11.868;2023-08-12T05:36:08;18.70;77.40
15394;DHT22;7795;47.986;11.868;2023-08-12T05:38:36;18.90;77.50
15394;DHT22;7795;47.986;11.868;2023-08-12T05:41:02;19.00;77.50
15394;DHT22;7795;47.986;11.868;2023-08-12T05:43:29;19.20;77.50
15394;DHT22;7795;47.986;11.868;2023-08-12T05:45:55;19.40;77.40
15394;DHT22;7795;47.986;11.868;2023-08-12T05:48:21;19.60;77.30
15394;DHT22;7795;47.986;11.868;2023-08-12T05:50:46;19.90;77.10
15394;DHT22;7795;47.986;11.868;2023-08-12T05:53:12;20.10;76.80
15394;DHT22;7795;47.986;11.868;2023-08-12T05:55:39;20.30;76.60
15394;DHT22;7795;47.986;11.868;2023-08-12T05:58:05;20.50;76.40
15394;DHT22;7795;47.986;11.868;2023-08-12T06:00:31;20.60;76.00
15394;DHT22;7795;47.986;11.868;2023-08-12T06:02:56;20.80;75.80
15394;DHT22;7795;47.986;11.868;2023-08-12T06:05:22;21.00;75.50
15394;DHT22;7795;47.986;11.868;2023-08-12T06:07:48;21.10;75.20
15394;DHT22;7795;47.986;11.868;2023-08-12T06:10:14;21.30;75.00
15394;DHT22;7795;47.986;11.868;2023-08-12T06:12:41;21.40;74.70
15394;DHT22;7795;47.986;11.868;2023-08-12T06:15:07;21.60;74.60
15394;DHT22;7795;47.986;11.868;2023-08-12T06:17:33;21.70;74.40
15394;DHT22;7795;47.986;11.868;2023-08-12T06:19:58;21.90;74.40
15394;DHT22;7795;47.986;11.868;2023-08-12T06:22:24;22.00;74.30
15394;DHT22;7795;47.986;11.868;2023-08-12T06:24:50;22.10;74.10
15394;DHT22;7795;47.986;11.868;2023-08-12T06:27:16;22.30;74.70
15394;DHT22;7795;47.986;11.868;2023-08-12T06:29:43;22.40;73.70
15394;DHT22;7795;47.986;11.868;2023-08-12T06:32:09;22.50;73.50
15394;DHT22;7795;47.986;11.868;2023-08-12T06:34:38;22.60;73.40
15394;DHT22;7795;47.986;11.868;2023-08-12T06:37:04;22.80;73.20
15394;DHT22;7795;47.986;11.868;2023-08-12T06:39:29;22.80;72.90
15394;DHT22;7795;47.986;11.868;2023-08-12T06:41:55;22.90;72.80
15394;DHT22;7795;47.986;11.868;2023-08-12T06:44:21;23.00;72.70
15394;DHT22;7795;47.986;11.868;2023-08-12T06:46:48;23.10;72.60
15394;DHT22;7795;47.986;11.868;2023-08-12T06:49:16;23.10;72.40
15394;DHT22;7795;47.986;11.868;2023-08-12T06:51:41;23.30;72.50
15394;DHT22;7795;47.986;11.868;2023-08-12T06:54:07;23.30;72.40
15394;DHT22;7795;47.986;11.868;2023-08-12T06:56:33;23.30;72.40
15394;DHT22;7795;47.986;11.868;2023-08-12T06:58:59;23.40;72.40
15394;DHT22;7795;47.986;11.868;2023-08-12T07:01:24;23.40;72.30
15394;DHT22;7795;47.986;11.868;2023-08-12T07:03:52;23.50;72.30
15394;DHT22;7795;47.986;11.868;2023-08-12T07:06:18;23.50;72.20
15394;DHT22;7795;47.986;11.868;2023-08-12T07:08:44;23.50;72.20
15394;DHT22;7795;47.986;11.868;2023-08-12T07:11:09;23.60;72.30
15394;DHT22;7795;47.986;11.868;2023-08-12T07:13:35;23.70;72.30
15394;DHT22;7795;47.986;11.868;2023-08-12T07:16:01;23.70;72.50
15394;DHT22;7795;47.986;11.868;2023-08-12T07:18:27;23.70;72.50
15394;DHT22;7795;47.986;11.868;2023-08-12T07:20:55;23.80;72.50
15394;DHT22;7795;47.986;11.868;2023-08-12T07:23:23;23.80;72.30
15394;DHT22;7795;47.986;11.868;2023-08-12T07:25:49;23.90;72.30
15394;DHT22;7795;47.986;11.868;2023-08-12T07:28:15;23.90;72.10
15394;DHT22;7795;47.986;11.868;2023-08-12T07:30:41;24.00;72.00
15394;DHT22;7795;47.986;11.868;2023-08-12T07:33:07;24.00;71.90
15394;DHT22;7795;47.986;11.868;2023-08-12T07:35:33;24.10;71.90
15394;DHT22;7795;47.986;11.868;2023-08-12T07:38:00;24.10;71.70
15394;DHT22;7795;47.986;11.868;2023-08-12T07:40:26;24.20;72.60
15394;DHT22;7795;47.986;11.868;2023-08-12T07:42:52;24.20;71.80
15394;DHT22;7795;47.986;11.868;2023-08-12T07:45:18;24.30;71.70
15394;DHT22;7795;47.986;11.868;2023-08-12T07:47:44;24.30;71.70
15394;DHT22;7795;47.986;11.868;2023-08-12T07:50:10;24.40;71.70
15394;DHT22;7795;47.986;11.868;2023-08-12T07:52:36;24.40;71.70
15394;DHT22;7795;47.986;11.868;2023-08-12T07:55:04;24.60;71.60
15394;DHT22;7795;47.986;11.868;2023-08-12T07:57:30;24.60;71.50
15394;DHT22;7795;47.986;11.868;2023-08-12T07:59:55;24.70;71.10
15394;DHT22;7795;47.986;11.868;2023-08-12T08:02:21;24.70;70.90
15394;DHT22;7795;47.986;11.868;2023-08-12T08:04:47;24.80;70.70
15394;DHT22;7795;47.986;11.868;2023-08-12T08:07:14;24.90;70.60
15394;DHT22;7795;47.986;11.868;2023-08-12T08:09:40;24.90;70.30
15394;DHT22;7795;47.986;11.868;2023-08-12T08:12:08;25.00;70.10
15394;DHT22;7795;47.986;11.868;2023-08-12T08:14:34;25.10;69.40
15394;DHT22;7795;47.986;11.868;2023-08-12T08:17:00;25.20;69.50
15394;DHT22;7795;47.986;11.868;2023-08-12T08:19:26;25.30;69.40
15394;DHT22;7795;47.986;11.868;2023-08-12T08:21:52;25.30;69.30
15394;DHT22;7795;47.986;11.868;2023-08-12T08:24:17;25.40;69.30
15394;DHT22;7795;47.986;11.868;2023-08-12T08:26:43;25.50;69.20
15394;DHT22;7795;47.986;11.868;2023-08-12T08:29:12;25.60;69.10
15394;DHT22;7795;47.986;11.868;2023-08-12T08:31:38;25.70;69.00
15394;DHT22;7795;47.986;11.868;2023-08-12T08:34:04;25.80;68.80
15394;DHT22;7795;47.986;11.868;2023-08-12T08:36:30;25.90;68.90
15394;DHT22;7795;47.986;11.868;2023-08-12T08:38:56;26.00;68.80
15394;DHT22;7795;47.986;11.868;2023-08-12T08:41:22;26.10;68.70
15394;DHT22;7795;47.986;11.868;2023-08-12T08:43:50;26.20;68.50
15394;DHT22;7795;47.986;11.868;2023-08-12T08:46:19;26.30;68.60
15394;DHT22;7795;47.986;11.868;2023-08-12T08:48:47;26.40;68.50
15394;DHT22;7795;47.986;11.868;2023-08-12T08:51:14;26.50;68.10
15394;DHT22;7795;47.986;11.868;2023-08-12T08:53:40;26.60;67.90
15394;DHT22;7795;47.986;11.868;2023-08-12T08:56:07;26.70;67.60
15394;DHT22;7795;47.986;11.868;2023-08-12T08:58:37;26.80;67.20
15394;DHT22;7795;47.986;11.868;2023-08-12T09:01:03;26.90;66.70
15394;DHT22;7795;47.986;11.868;2023-08-12T09:03:30;27.00;66.40
15394;DHT22;7795;47.986;11.868;2023-08-12T09:05:56;27.10;65.50
15394;DHT22;7795;47.986;11.868;2023-08-12T09:08:23;27.20;65.50
15394;DHT22;7795;47.986;11.868;2023-08-12T09:10:50;27.30;65.50
15394;DHT22;7795;47.986;11.868;2023-08-12T09:13:16;27.30;64.90
15394;DHT22;7795;47.986;11.868;2023-08-12T09:15:43;27.40;65.10
15394;DHT22;7795;47.986;11.868;2023-08-12T09:18:09;27.50;64.80
15394;DHT22;7795;47.986;11.868;2023-08-12T09:20:37;27.60;64.70
15394;DHT22;7795;47.986;11.868;2023-08-12T09:23:03;27.70;64.80
15394;DHT22;7795;47.986;11.868;2023-08-12T09:25:29;27.80;64.70
15394;DHT22;7795;47.986;11.868;2023-08-12T09:27:55;27.90;64.40
15394;DHT22;7795;47.986;11.868;2023-08-12T09:30:23;28.00;64.30
15394;DHT22;7795;47.986;11.868;2023-08-12T09:32:59;28.20;64.30
15394;DHT22;7795;47.986;11.868;2023-08-12T09:35:32;28.30;63.70
15394;DHT22;7795;47.986;11.868;2023-08-12T09:38:01;28.40;63.70
15394;DHT22;7795;47.986;11.868;2023-08-12T09:40:27;28.50;63.60
15394;DHT22;7795;47.986;11.868;2023-08-12T09:42:53;28.60;63.60
15394;DHT22;7795;47.986;11.868;2023-08-12T09:45:19;28.70;63.50
15394;DHT22;7795;47.986;11.868;2023-08-12T09:47:48;28.80;63.40
15394;DHT22;7795;47.986;11.868;2023-08-12T09:50:14;28.90;63.30
15394;DHT22;7795;47.986;11.868;2023-08-12T09:52:40;29.00;63.30
15394;DHT22;7795;47.986;11.868;2023-08-12T09:55:08;29.10;62.80
15394;DHT22;7795;47.986;11.868;2023-08-12T09:57:36;29.20;62.70
15394;DHT22;7795;47.986;11.868;2023-08-12T10:00:07;29.30;62.70
15394;DHT22;7795;47.986;11.868;2023-08-12T10:02:38;29.40;62.40
15394;DHT22;7795;47.986;11.868;2023-08-12T10:05:05;29.50;62.30
15394;DHT22;7795;47.986;11.868;2023-08-12T10:07:33;29.60;62.20
15394;DHT22;7795;47.986;11.868;2023-08-12T10:09:58;29.70;62.20
15394;DHT22;7795;47.986;11.868;2023-08-12T10:12:26;29.80;61.90
15394;DHT22;7795;47.986;11.868;2023-08-12T10:14:51;29.90;61.50
15394;DHT22;7795;47.986;11.868;2023-08-12T10:17:18;30.00;61.30
15394;DHT22;7795;47.986;11.868;2023-08-12T10:19:44;30.00;61.20
15394;DHT22;7795;47.986;11.868;2023-08-12T10:22:11;30.20;61.20
15394;DHT22;7795;47.986;11.868;2023-08-12T10:24:37;30.20;61.20
15394;DHT22;7795;47.986;11.868;2023-08-12T10:27:04;30.30;60.40
15394;DHT22;7795;47.986;11.868;2023-08-12T10:29:32;30.40;60.40
15394;DHT22;7795;47.986;11.868;2023-08-12T10:31:57;30.50;60.50
15394;DHT22;7795;47.986;11.868;2023-08-12T10:34:24;30.50;60.20
15394;DHT22;7795;47.986;11.868;2023-08-12T10:36:54;30.60;60.20
15394;DHT22;7795;47.986;11.868;2023-08-12T10:39:24;30.70;60.00
15394;DHT22;7795;47.986;11.868;2023-08-12T10:41:50;30.80;60.20
15394;DHT22;7795;47.986;11.868;2023-08-12T10:44:20;30.90;59.70
15394;DHT22;7795;47.986;11.868;2023-08-12T10:46:52;31.00;59.60
15394;DHT22;7795;47.986;11.868;2023-08-12T10:49:19;31.10;59.50
15394;DHT22;7795;47.986;11.868;2023-08-12T10:51:46;31.10;59.80
15394;DHT22;7795;47.986;11.868;2023-08-12T10:54:17;31.20;59.10
15394;DHT22;7795;47.986;11.868;2023-08-12T10:57:06;31.20;58.10
15394;DHT22;7795;47.986;11.868;2023-08-12T10:59:53;31.30;58.00
15394;DHT22;7795;47.986;11.868;2023-08-12T11:02:22;31.40;57.40
15394;DHT22;7795;47.986;11.868;2023-08-12T11:04:49;31.40;56.70
15394;DHT22;7795;47.986;11.868;2023-08-12T11:07:16;31.40;56.60
15394;DHT22;7795;47.986;11.868;2023-08-12T11:09:42;31.50;56.00
15394;DHT22;7795;47.986;11.868;2023-08-12T11:12:08;31.50;55.90
15394;DHT22;7795;47.986;11.868;2023-08-12T11:14:46;31.60;55.70
15394;DHT22;7795;47.986;11.868;2023-08-12T11:17:13;31.70;54.90
15394;DHT22;7795;47.986;11.868;2023-08-12T11:19:41;31.70;55.80
15394;DHT22;7795;47.986;11.868;2023-08-12T11:22:07;31.80;54.20
15394;DHT22;7795;47.986;11.868;2023-08-12T11:24:34;31.80;54.30
15394;DHT22;7795;47.986;11.868;2023-08-12T11:27:02;31.80;53.90
15394;DHT22;7795;47.986;11.868;2023-08-12T11:29:28;31.90;53.50
15394;DHT22;7795;47.986;11.868;2023-08-12T11:31:54;32.00;53.30
15394;DHT22;7795;47.986;11.868;2023-08-12T11:34:20;32.00;53.30
15394;DHT22;7795;47.986;11.868;2023-08-12T11:36:47;32.10;54.10
15394;DHT22;7795;47.986;11.868;2023-08-12T11:39:15;32.20;53.00
15394;DHT22;7795;47.986;11.868;2023-08-12T11:41:41;32.20;53.00
15394;DHT22;7795;47.986;11.868;2023-08-12T11:44:11;32.20;52.80
15394;DHT22;7795;47.986;11.868;2023-08-12T11:46:37;32.30;52.10
15394;DHT22;7795;47.986;11.868;2023-08-12T11:49:03;32.40;52.40
15394;DHT22;7795;47.986;11.868;2023-08-12T11:51:29;32.40;52.10
15394;DHT22;7795;47.986;11.868;2023-08-12T11:53:56;32.50;52.00
15394;DHT22;7795;47.986;11.868;2023-08-12T11:56:22;32.50;51.30
15394;DHT22;7795;47.986;11.868;2023-08-12T11:58:48;32.50;51.80
15394;DHT22;7795;47.986;11.868;2023-08-12T12:01:16;32.50;51.20
15394;DHT22;7795;47.986;11.868;2023-08-12T12:03:42;32.60;51.50
15394;DHT22;7795;47.986;11.868;2023-08-12T12:06:08;32.60;51.00
15394;DHT22;7795;47.986;11.868;2023-08-12T12:08:34;32.60;50.80
15394;DHT22;7795;47.986;11.868;2023-08-12T12:11:05;32.60;50.30
15394;DHT22;7795;47.986;11.868;2023-08-12T12:13:31;32.70;49.60
15394;DHT22;7795;47.986;11.868;2023-08-12T12:15:58;32.60;49.90
15394;DHT22;7795;47.986;11.868;2023-08-12T12:18:25;32.60;49.90
15394;DHT22;7795;47.986;11.868;2023-08-12T12:20:55;32.60;49.90
15394;DHT22;7795;47.986;11.868;2023-08-12T12:23:21;32.60;50.00
15394;DHT22;7795;47.986;11.868;2023-08-12T12:25:47;32.70;50.30
15394;DHT22;7795;47.986;11.868;2023-08-12T12:28:14;32.70;50.00
15394;DHT22;7795;47.986;11.868;2023-08-12T12:30:40;32.70;49.60
15394;DHT22;7795;47.986;11.868;2023-08-12T12:33:05;32.70;49.70
15394;DHT22;7795;47.986;11.868;2023-08-12T12:35:31;32.70;48.30
15394;DHT22;7795;47.986;11.868;2023-08-12T12:37:57;32.70;48.30
15394;DHT22;7795;47.986;11.868;2023-08-12T12:40:23;32.80;48.70
15394;DHT22;7795;47.986;11.868;2023-08-12T12:42:48;32.80;48.50
15394;DHT22;7795;47.986;11.868;2023-08-12T12:45:15;32.90;48.50
15394;DHT22;7795;47.986;11.868;2023-08-12T12:47:41;32.90;48.50
15394;DHT22;7795;47.986;11.868;2023-08-12T12:50:07;32.90;48.50
15394;DHT22;7795;47.986;11.868;2023-08-12T12:52:33;32.90;48.00
15394;DHT22;7795;47.986;11.868;2023-08-12T12:54:58;32.90;47.30
15394;DHT22;7795;47.986;11.868;2023-08-12T12:57:26;33.00;46.80
15394;DHT22;7795;47.986;11.868;2023-08-12T12:59:52;33.00;46.70
15394;DHT22;7795;47.986;11.868;2023-08-12T13:02:19;33.00;46.70
15394;DHT22;7795;47.986;11.868;2023-08-12T13:04:45;33.00;46.70
15394;DHT22;7795;47.986;11.868;2023-08-12T13:07:11;33.00;46.80
15394;DHT22;7795;47.986;11.868;2023-08-12T13:09:36;33.10;46.50
15394;DHT22;7795;47.986;11.868;2023-08-12T13:12:02;33.10;46.40
15394;DHT22;7795;47.986;11.868;2023-08-12T13:14:28;33.10;46.20
15394;DHT22;7795;47.986;11.868;2023-08-12T13:16:55;33.10;46.30
15394;DHT22;7795;47.986;11.868;2023-08-12T13:19:23;33.20;46.30
15394;DHT22;7795;47.986;11.868;2023-08-12T13:21:48;33.20;46.10
15394;DHT22;7795;47.986;11.868;2023-08-12T13:24:14;33.20;46.30
15394;DHT22;7795;47.986;11.868;2023-08-12T13:26:40;33.20;46.40
15394;DHT22;7795;47.986;11.868;2023-08-12T13:29:06;33.20;46.00
15394;DHT22;7795;47.986;11.868;2023-08-12T13:31:32;33.30;46.00
15394;DHT22;7795;47.986;11.868;2023-08-12T13:33:58;33.30;45.50
15394;DHT22;7795;47.986;11.868;2023-08-12T13:36:25;33.30;45.50
15394;DHT22;7795;47.986;11.868;2023-08-12T13:38:51;33.30;45.30
15394;DHT22;7795;47.986;11.868;2023-08-12T13:41:17;33.40;46.00
15394;DHT22;7795;47.986;11.868;2023-08-12T13:43:42;33.40;45.40
15394;DHT22;7795;47.986;11.868;2023-08-12T13:46:08;33.40;45.20
15394;DHT22;7795;47.986;11.868;2023-08-12T13:48:34;33.40;44.60
15394;DHT22;7795;47.986;11.868;2023-08-12T13:51:00;33.50;44.70
15394;DHT22;7795;47.986;11.868;2023-08-12T13:53:27;33.50;44.80
15394;DHT22;7795;47.986;11.868;2023-08-12T13:55:53;33.50;44.60
15394;DHT22;7795;47.986;11.868;2023-08-12T13:58:18;33.60;45.00
15394;DHT22;7795;47.986;11.868;2023-08-12T14:00:44;33.60;45.00
15394;DHT22;7795;47.986;11.868;2023-08-12T14:03:10;33.60;45.00
15394;DHT22;7795;47.986;11.868;2023-08-12T14:05:36;33.70;44.80
15394;DHT22;7795;47.986;11.868;2023-08-12T14:08:01;33.70;44.80
15394;DHT22;7795;47.986;11.868;2023-08-12T14:10:29;33.80;44.80
15394;DHT22;7795;47.986;11.868;2023-08-12T14:12:54;33.80;44.60
15394;DHT22;7795;47.986;11.868;2023-08-12T14:15:20;33.90;44.80
15394;DHT22;7795;47.986;11.868;2023-08-12T14:17:46;33.90;44.70
15394;DHT22;7795;47.986;11.868;2023-08-12T14:20:12;33.90;44.50
15394;DHT22;7795;47.986;11.868;2023-08-12T14:22:40;34.00;44.70
15394;DHT22;7795;47.986;11.868;2023-08-12T14:25:07;34.00;44.60
15394;DHT22;7795;47.986;11.868;2023-08-12T14:27:34;34.10;44.70
15394;DHT22;7795;47.986;11.868;2023-08-12T14:30:00;34.10;44.70
15394;DHT22;7795;47.986;11.868;2023-08-12T14:32:26;34.10;44.80
15394;DHT22;7795;47.986;11.868;2023-08-12T14:34:52;34.10;45.60
15394;DHT22;7795;47.986;11.868;2023-08-12T14:37:17;34.10;44.90
15394;DHT22;7795;47.986;11.868;2023-08-12T14:39:43;34.10;45.00
15394;DHT22;7795;47.986;11.868;2023-08-12T14:42:09;34.10;44.70
15394;DHT22;7795;47.986;11.868;2023-08-12T14:44:37;34.00;44.70
15394;DHT22;7795;47.986;11.868;2023-08-12T14:47:03;34.00;44.80
15394;DHT22;7795;47.986;11.868;2023-08-12T14:49:29;34.00;45.00
15394;DHT22;7795;47.986;11.868;2023-08-12T14:51:55;34.00;45.00
15394;DHT22;7795;47.986;11.868;2023-08-12T14:54:22;34.00;45.10
15394;DHT22;7795;47.986;11.868;2023-08-12T14:56:48;34.00;45.00
15394;DHT22;7795;47.986;11.868;2023-08-12T14:59:13;34.00;45.00
15394;DHT22;7795;47.986;11.868;2023-08-12T15:01:41;34.00;45.10
15394;DHT22;7795;47.986;11.868;2023-08-12T15:04:07;34.00;44.90
15394;DHT22;7795;47.986;11.868;2023-08-12T15:06:33;34.10;44.70
15394;DHT22;7795;47.986;11.868;2023-08-12T15:08:58;34.10;44.60
15394;DHT22;7795;47.986;11.868;2023-08-12T15:11:24;34.10;44.90
15394;DHT22;7795;47.986;11.868;2023-08-12T15:13:50;34.10;45.20
15394;DHT22;7795;47.986;11.868;2023-08-12T15:16:16;34.10;44.90
15394;DHT22;7795;47.986;11.868;2023-08-12T15:18:43;34.00;44.70
15394;DHT22;7795;47.986;11.868;2023-08-12T15:21:09;34.00;45.20
15394;DHT22;7795;47.986;11.868;2023-08-12T15:23:35;34.00;45.00
15394;DHT22;7795;47.986;11.868;2023-08-12T15:26:01;34.00;45.60